Flight Track Log - Related Links

Times and Time Zones

All times are in EDT time to prevent confusion due to time zone crossing. See the FLG3762 flight status page for this flight to view local times or setup timezone preferences in your user account.

Time Position Orientation Groundspeed Altitude Reporting Facility
EDT Latitude Longitude Course Direction KTS MPH feet Rate Location/Type
Thu 07:33:07 AM 42.2622 -85.5492 291° West 192 221 2,200  Level Chicago Center
Thu 07:34:08 AM 42.3114 -85.5617 349° North 198 228 4,400 2,195 Climbing Chicago Center
Thu 07:35:10 AM 42.3350 -85.6494 290° West 246 283 6,700 2,468 Climbing Chicago Center
Thu 07:36:00 AM 42.4132 -86.0062 294° West  Level FlightAware Approximate
Thu 07:36:12 AM 42.3633 -85.7447 292° West 266 306 9,500  Level Chicago Center
Thu 07:37:00 AM 42.4576 -86.1227 294° West  Level FlightAware Approximate
Thu 07:37:13 AM 42.3911 -85.8414 291° West 276 318 11,100  Level Chicago Center
Thu 07:38:00 AM 42.5049 -86.2338 291° West  Level FlightAware Approximate
Thu 07:38:15 AM 42.4239 -85.9550 291° West 319 367 12,500  Level Chicago Center
Thu 07:39:17 AM 42.4642 -86.0958 291° West 333 383 14,500 1,610 Climbing Chicago Center
Thu 07:40:18 AM 42.4653 -86.2214 271° West 346 398 15,800 1,561 Climbing Chicago Center
Thu 07:41:20 AM 42.4503 -86.3467 261° West 338 389 17,700 1,694 Climbing Chicago Center
Thu 07:42:22 AM 42.4517 -86.4725 271° West 337 388 19,300 1,366 Climbing Chicago Center
Thu 07:43:23 AM 42.4814 -86.5900 289° West 338 389 20,500 829 Climbing Chicago Center
Thu 07:44:25 AM 42.5458 -86.7153 305° West 367 422 21,000 677 Climbing Chicago Center
Thu 07:45:27 AM 42.5958 -86.8197 303° West 368 423 21,900 878 Climbing Chicago Center
Thu 07:46:28 AM 42.6550 -86.9383 304° West 374 430 22,800 780 Climbing Chicago Center
Thu 07:47:30 AM 42.7136 -87.0556 304° West 373 429 23,500 581 Climbing Chicago Center
Thu 07:48:32 AM 42.7842 -87.2003 304° West 381 438 24,000 242 Climbing Chicago Center
Thu 07:49:34 AM 42.8447 -87.3247 304° West 391 450 24,000  Level Chicago Center
Thu 07:50:35 AM 42.9114 -87.4628 303° West 400 460 24,000  Level Chicago Center
Thu 07:51:37 AM 42.9739 -87.5906 304° West 404 465 24,000  Level Chicago Center
Thu 07:52:39 AM 43.0350 -87.7167 304° West 399 459 24,000  Level Chicago Center
Thu 07:53:41 AM 43.0919 -87.8333 304° West 375 432 24,000  Level Chicago Center
Thu 07:54:42 AM 43.1467 -87.9492 303° West 364 419 24,000  Level Chicago Center
Thu 07:55:44 AM 43.2025 -88.0669 303° West 366 421 24,000  Level Chicago Center
Thu 07:56:46 AM 43.2600 -88.1875 303° West 375 432 24,000  Level Chicago Center
Thu 07:57:48 AM 43.3278 -88.3297 303° West 381 438 24,000  Level Chicago Center
Thu 07:58:50 AM 43.3844 -88.4508 303° West 375 432 24,000  Level Chicago Center
Thu 07:59:51 AM 43.4469 -88.5800 304° West 382 440 24,000  Level Chicago Center
Thu 08:00:53 AM 43.5019 -88.7019 302° West 376 433 24,000  Level Chicago Center
Thu 08:01:55 AM 43.5583 -88.8231 303° West 374 430 24,000  Level Chicago Center
Thu 08:02:57 AM 43.6156 -88.9469 303° West 381 438 24,000  Level Chicago Center
Thu 08:03:58 AM 43.6736 -89.0714 303° West 382 440 24,000  Level Chicago Center
Thu 08:04:35 AM 43.7111 -89.1544 302° West 382 440 24,000  Level Minneapolis Center
Thu 08:05:37 AM 43.7675 -89.2794 302° West 384 442 24,000  Level Minneapolis Center
Thu 08:06:38 AM 43.8242 -89.4044 302° West 384 442 24,000  Level Minneapolis Center
Thu 08:07:40 AM 43.8817 -89.5317 302° West 387 445 24,000  Level Minneapolis Center
Thu 08:08:41 AM 43.9267 -89.6389 300° West 387 445 24,000  Level Minneapolis Center
Thu 08:09:43 AM 43.9836 -89.7939 297° West 387 445 24,000  Level Minneapolis Center
Thu 08:10:45 AM 44.0408 -89.9478 297° West 385 443 24,000  Level Minneapolis Center
Thu 08:11:47 AM 44.0903 -90.0806 297° West 386 444 24,000  Level Minneapolis Center
Thu 08:12:48 AM 44.1311 -90.1911 297° West 385 443 24,000  Level Minneapolis Center
Thu 08:13:50 AM 44.1869 -90.3453 297° West 383 441 24,000  Level Minneapolis Center
Thu 08:14:52 AM 44.2350 -90.4772 297° West 382 440 24,000  Level Minneapolis Center
Thu 08:15:53 AM 44.2853 -90.6092 298° West 380 437 24,000  Level Minneapolis Center
Thu 08:16:55 AM 44.3392 -90.7619 296° West 382 440 24,000  Level Minneapolis Center
Thu 08:17:57 AM 44.3881 -90.8986 297° West 390 449 24,000  Level Minneapolis Center
Thu 08:18:59 AM 44.4331 -91.0253 296° West 398 458 24,000  Level Minneapolis Center
Thu 08:20:01 AM 44.4842 -91.1650 297° West 403 464 24,000  Level Minneapolis Center
Thu 08:21:03 AM 44.5428 -91.3339 296° West 403 464 24,000 -339 Level Minneapolis Center
Thu 08:22:05 AM 44.5917 -91.4728 296° West 400 460 23,300 -1,463 Descending Minneapolis Center
Thu 08:23:06 AM 44.6411 -91.6117 297° West 400 460 21,000 -2,195 Descending Minneapolis Center
Thu 08:24:08 AM 44.6881 -91.7461 296° West 391 450 18,800 -2,032 Descending Minneapolis Center
Thu 08:25:10 AM 44.7328 -91.8769 296° West 379 436 16,800 -1,809 Descending Minneapolis Center
Thu 08:26:24 AM 44.7772 -92.0064 296° West 370 426 14,700 -2,162 Descending Minneapolis Center
Thu 08:27:26 AM 44.8386 -92.1844 296° West 360 414 11,900 -2,226 Descending Minneapolis Center
Thu 08:28:28 AM 44.8756 -92.3097 293° West 349 402 10,100 -1,306 Descending Minneapolis Center
Thu 08:29:30 AM 44.8425 -92.4111 245° Southwest 282 325 9,200 -532 Descending Minneapolis Center
Thu 08:30:32 AM 44.8000 -92.5011 236° Southwest 277 319 9,000 -242 Descending Minneapolis Center
Thu 08:31:34 AM 44.7544 -92.5942 235° Southwest 286 329 8,700 -484 Descending Minneapolis Center
Thu 08:32:36 AM 44.7083 -92.6744 231° Southwest 269 310 8,000 -309 Descending Minneapolis Center
Thu 08:33:50 AM 44.6769 -92.7467 239° Southwest 208 239 8,000 -263 Level Minneapolis Center
Thu 08:34:53 AM 44.7100 -92.8278 300° West 202 232 7,400 -864 Descending Minneapolis Center
Thu 08:35:55 AM 44.7425 -92.8978 303° West 213 245 6,200 -968 Descending Minneapolis Center
Thu 08:36:57 AM 44.7733 -92.9736 300° West 223 257 5,400 -1,161 Descending Minneapolis Center
Thu 08:37:59 AM 44.8044 -93.0419 303° West 212 244 3,800 -1,512 Descending Minneapolis Center
Thu 08:39:00 AM 44.8356 -93.1139 301° West 181 208 2,300 -1,122 Descending Minneapolis Center
Thu 08:40:02 AM 44.8572 -93.1636 302° West 152 175 1,500 -774 Descending Minneapolis Center

Login

Don't have an account? Register now (free) for customized features, flight alerts, and more!